sensor_id;sensor_type;location;lat;lon;timestamp;P1;durP1;ratioP1;P2;durP2;ratioP2
22786;SDS011;63134;52.020;4.714;2022-10-16T00:01:39;3.35;;;1.90;;
22786;SDS011;63134;52.020;4.714;2022-10-16T00:04:24;7.30;;;2.17;;
22786;SDS011;63134;52.020;4.714;2022-10-16T00:07:10;7.93;;;2.00;;
22786;SDS011;63134;52.020;4.714;2022-10-16T00:10:01;5.28;;;1.92;;
22786;SDS011;63134;52.020;4.714;2022-10-16T00:12:46;6.57;;;2.30;;
22786;SDS011;63134;52.020;4.714;2022-10-16T00:15:35;7.05;;;2.67;;
22786;SDS011;63134;52.020;4.714;2022-10-16T00:18:21;7.60;;;2.03;;
22786;SDS011;63134;52.020;4.714;2022-10-16T00:21:08;7.78;;;1.92;;
22786;SDS011;63134;52.020;4.714;2022-10-16T00:23:57;4.35;;;2.00;;
22786;SDS011;63134;52.020;4.714;2022-10-16T00:26:48;5.65;;;1.80;;
22786;SDS011;63134;52.020;4.714;2022-10-16T00:29:35;3.17;;;1.77;;
22786;SDS011;63134;52.020;4.714;2022-10-16T00:32:20;5.25;;;2.28;;
22786;SDS011;63134;52.020;4.714;2022-10-16T00:35:09;5.30;;;2.00;;
22786;SDS011;63134;52.020;4.714;2022-10-16T00:37:54;7.57;;;1.70;;
22786;SDS011;63134;52.020;4.714;2022-10-16T00:40:40;8.93;;;2.20;;
22786;SDS011;63134;52.020;4.714;2022-10-16T00:43:32;2.45;;;1.45;;
22786;SDS011;63134;52.020;4.714;2022-10-16T00:49:06;5.00;;;1.92;;
22786;SDS011;63134;52.020;4.714;2022-10-16T00:51:54;6.40;;;2.05;;
22786;SDS011;63134;52.020;4.714;2022-10-16T00:54:40;4.93;;;1.77;;
22786;SDS011;63134;52.020;4.714;2022-10-16T00:57:26;4.95;;;1.90;;
22786;SDS011;63134;52.020;4.714;2022-10-16T01:00:16;5.00;;;2.15;;
22786;SDS011;63134;52.020;4.714;2022-10-16T01:03:21;7.38;;;2.42;;
22786;SDS011;63134;52.020;4.714;2022-10-16T01:06:19;4.15;;;2.00;;
22786;SDS011;63134;52.020;4.714;2022-10-16T01:18:31;7.57;;;2.10;;
22786;SDS011;63134;52.020;4.714;2022-10-16T01:24:31;6.15;;;2.33;;
22786;SDS011;63134;52.020;4.714;2022-10-16T01:27:30;6.68;;;2.15;;
22786;SDS011;63134;52.020;4.714;2022-10-16T01:30:23;5.17;;;2.30;;
22786;SDS011;63134;52.020;4.714;2022-10-16T01:33:21;2.40;;;2.10;;
22786;SDS011;63134;52.020;4.714;2022-10-16T01:36:13;4.35;;;2.20;;
22786;SDS011;63134;52.020;4.714;2022-10-16T01:39:03;5.57;;;2.25;;
22786;SDS011;63134;52.020;4.714;2022-10-16T01:41:59;3.70;;;1.85;;
22786;SDS011;63134;52.020;4.714;2022-10-16T01:44:58;6.28;;;2.60;;
22786;SDS011;63134;52.020;4.714;2022-10-16T01:47:45;9.60;;;2.90;;
22786;SDS011;63134;52.020;4.714;2022-10-16T01:50:33;4.95;;;2.45;;
22786;SDS011;63134;52.020;4.714;2022-10-16T01:53:22;3.42;;;2.28;;
22786;SDS011;63134;52.020;4.714;2022-10-16T01:56:09;7.85;;;2.50;;
22786;SDS011;63134;52.020;4.714;2022-10-16T01:58:59;5.80;;;2.50;;
22786;SDS011;63134;52.020;4.714;2022-10-16T02:01:54;5.30;;;2.28;;
22786;SDS011;63134;52.020;4.714;2022-10-16T02:04:45;3.58;;;2.45;;
22786;SDS011;63134;52.020;4.714;2022-10-16T02:07:36;6.53;;;2.60;;
22786;SDS011;63134;52.020;4.714;2022-10-16T02:10:22;4.95;;;2.88;;
22786;SDS011;63134;52.020;4.714;2022-10-16T02:13:14;8.32;;;2.50;;
22786;SDS011;63134;52.020;4.714;2022-10-16T02:16:04;8.77;;;2.67;;
22786;SDS011;63134;52.020;4.714;2022-10-16T02:18:50;4.25;;;2.97;;
22786;SDS011;63134;52.020;4.714;2022-10-16T02:21:55;10.27;;;3.28;;
22786;SDS011;63134;52.020;4.714;2022-10-16T02:24:49;5.30;;;2.58;;
22786;SDS011;63134;52.020;4.714;2022-10-16T02:30:43;6.32;;;2.70;;
22786;SDS011;63134;52.020;4.714;2022-10-16T02:33:32;5.82;;;2.90;;
22786;SDS011;63134;52.020;4.714;2022-10-16T02:36:21;5.25;;;2.97;;
22786;SDS011;63134;52.020;4.714;2022-10-16T02:39:07;4.68;;;2.80;;
22786;SDS011;63134;52.020;4.714;2022-10-16T02:41:53;3.67;;;2.63;;
22786;SDS011;63134;52.020;4.714;2022-10-16T02:44:41;9.93;;;2.72;;
22786;SDS011;63134;52.020;4.714;2022-10-16T02:47:28;6.18;;;2.70;;
22786;SDS011;63134;52.020;4.714;2022-10-16T02:50:13;6.40;;;2.60;;
22786;SDS011;63134;52.020;4.714;2022-10-16T02:52:59;5.22;;;2.30;;
22786;SDS011;63134;52.020;4.714;2022-10-16T02:55:45;5.05;;;2.40;;
22786;SDS011;63134;52.020;4.714;2022-10-16T02:58:30;8.70;;;2.58;;
22786;SDS011;63134;52.020;4.714;2022-10-16T03:01:16;7.25;;;2.10;;
22786;SDS011;63134;52.020;4.714;2022-10-16T03:04:02;8.13;;;2.70;;
22786;SDS011;63134;52.020;4.714;2022-10-16T03:06:47;3.42;;;1.95;;
22786;SDS011;63134;52.020;4.714;2022-10-16T03:09:33;4.68;;;2.25;;
22786;SDS011;63134;52.020;4.714;2022-10-16T03:12:18;5.28;;;2.00;;
22786;SDS011;63134;52.020;4.714;2022-10-16T03:15:04;6.93;;;2.75;;
22786;SDS011;63134;52.020;4.714;2022-10-16T03:17:51;5.28;;;2.30;;
22786;SDS011;63134;52.020;4.714;2022-10-16T03:20:37;2.55;;;2.03;;
22786;SDS011;63134;52.020;4.714;2022-10-16T03:23:22;5.85;;;2.35;;
22786;SDS011;63134;52.020;4.714;2022-10-16T03:26:08;6.30;;;2.72;;
22786;SDS011;63134;52.020;4.714;2022-10-16T03:28:54;4.38;;;2.00;;
22786;SDS011;63134;52.020;4.714;2022-10-16T03:31:39;5.78;;;2.42;;
22786;SDS011;63134;52.020;4.714;2022-10-16T03:34:25;7.57;;;2.58;;
22786;SDS011;63134;52.020;4.714;2022-10-16T03:37:10;7.05;;;2.10;;
22786;SDS011;63134;52.020;4.714;2022-10-16T03:39:56;8.32;;;2.25;;
22786;SDS011;63134;52.020;4.714;2022-10-16T03:42:41;4.03;;;2.45;;
22786;SDS011;63134;52.020;4.714;2022-10-16T03:45:28;4.15;;;2.40;;
22786;SDS011;63134;52.020;4.714;2022-10-16T03:48:13;7.65;;;2.47;;
22786;SDS011;63134;52.020;4.714;2022-10-16T03:50:59;6.40;;;2.42;;
22786;SDS011;63134;52.020;4.714;2022-10-16T03:53:44;4.30;;;2.40;;
22786;SDS011;63134;52.020;4.714;2022-10-16T03:56:30;4.03;;;2.58;;
22786;SDS011;63134;52.020;4.714;2022-10-16T03:59:18;4.18;;;2.30;;
22786;SDS011;63134;52.020;4.714;2022-10-16T04:02:03;4.13;;;2.30;;
22786;SDS011;63134;52.020;4.714;2022-10-16T04:04:49;6.05;;;2.45;;
22786;SDS011;63134;52.020;4.714;2022-10-16T04:07:34;4.38;;;2.22;;
22786;SDS011;63134;52.020;4.714;2022-10-16T04:10:20;4.50;;;2.17;;
22786;SDS011;63134;52.020;4.714;2022-10-16T04:13:05;6.05;;;2.65;;
22786;SDS011;63134;52.020;4.714;2022-10-16T04:15:54;3.38;;;1.70;;
22786;SDS011;63134;52.020;4.714;2022-10-16T04:18:39;3.42;;;2.13;;
22786;SDS011;63134;52.020;4.714;2022-10-16T04:21:25;5.97;;;2.63;;
22786;SDS011;63134;52.020;4.714;2022-10-16T04:24:10;6.80;;;2.95;;
22786;SDS011;63134;52.020;4.714;2022-10-16T04:26:56;6.18;;;2.38;;
22786;SDS011;63134;52.020;4.714;2022-10-16T04:29:41;6.20;;;2.35;;
22786;SDS011;63134;52.020;4.714;2022-10-16T04:32:27;5.95;;;2.28;;
22786;SDS011;63134;52.020;4.714;2022-10-16T04:35:12;8.10;;;2.45;;
22786;SDS011;63134;52.020;4.714;2022-10-16T04:37:58;8.27;;;2.67;;
22786;SDS011;63134;52.020;4.714;2022-10-16T04:40:44;5.28;;;2.40;;
22786;SDS011;63134;52.020;4.714;2022-10-16T04:43:29;7.18;;;2.10;;
22786;SDS011;63134;52.020;4.714;2022-10-16T04:46:15;8.80;;;2.60;;
22786;SDS011;63134;52.020;4.714;2022-10-16T04:49:03;6.45;;;2.50;;
22786;SDS011;63134;52.020;4.714;2022-10-16T04:51:48;6.60;;;2.30;;
22786;SDS011;63134;52.020;4.714;2022-10-16T04:54:34;4.53;;;2.30;;
22786;SDS011;63134;52.020;4.714;2022-10-16T04:57:23;8.93;;;2.63;;
22786;SDS011;63134;52.020;4.714;2022-10-16T05:00:10;8.60;;;2.42;;
22786;SDS011;63134;52.020;4.714;2022-10-16T05:02:55;4.75;;;2.13;;
22786;SDS011;63134;52.020;4.714;2022-10-16T05:05:42;10.18;;;2.95;;
22786;SDS011;63134;52.020;4.714;2022-10-16T05:08:29;10.52;;;3.22;;
22786;SDS011;63134;52.020;4.714;2022-10-16T05:11:14;4.90;;;2.67;;
22786;SDS011;63134;52.020;4.714;2022-10-16T05:14:04;5.70;;;2.47;;
22786;SDS011;63134;52.020;4.714;2022-10-16T05:16:49;6.47;;;2.72;;
22786;SDS011;63134;52.020;4.714;2022-10-16T05:19:35;7.45;;;2.70;;
22786;SDS011;63134;52.020;4.714;2022-10-16T05:22:21;7.13;;;2.42;;
22786;SDS011;63134;52.020;4.714;2022-10-16T05:25:07;5.28;;;2.10;;
22786;SDS011;63134;52.020;4.714;2022-10-16T05:27:52;3.35;;;2.40;;
22786;SDS011;63134;52.020;4.714;2022-10-16T05:30:41;6.85;;;2.17;;
22786;SDS011;63134;52.020;4.714;2022-10-16T05:33:26;3.53;;;2.00;;
22786;SDS011;63134;52.020;4.714;2022-10-16T05:36:12;7.32;;;2.50;;
22786;SDS011;63134;52.020;4.714;2022-10-16T05:38:57;10.93;;;3.22;;
22786;SDS011;63134;52.020;4.714;2022-10-16T05:41:43;6.43;;;2.40;;
22786;SDS011;63134;52.020;4.714;2022-10-16T05:44:29;7.75;;;2.65;;
22786;SDS011;63134;52.020;4.714;2022-10-16T05:47:14;10.10;;;2.60;;
22786;SDS011;63134;52.020;4.714;2022-10-16T05:50:00;4.45;;;2.10;;
22786;SDS011;63134;52.020;4.714;2022-10-16T05:52:46;4.50;;;2.55;;
22786;SDS011;63134;52.020;4.714;2022-10-16T05:55:33;8.55;;;2.63;;
22786;SDS011;63134;52.020;4.714;2022-10-16T05:58:19;5.78;;;2.67;;
22786;SDS011;63134;52.020;4.714;2022-10-16T06:01:05;6.70;;;2.33;;
22786;SDS011;63134;52.020;4.714;2022-10-16T06:03:53;6.93;;;2.65;;
22786;SDS011;63134;52.020;4.714;2022-10-16T06:06:44;7.90;;;2.63;;
22786;SDS011;63134;52.020;4.714;2022-10-16T06:09:29;6.78;;;2.30;;
22786;SDS011;63134;52.020;4.714;2022-10-16T06:12:15;18.25;;;2.97;;
22786;SDS011;63134;52.020;4.714;2022-10-16T06:15:06;6.32;;;2.13;;
22786;SDS011;63134;52.020;4.714;2022-10-16T06:17:52;5.88;;;2.13;;
22786;SDS011;63134;52.020;4.714;2022-10-16T06:20:37;9.40;;;2.30;;
22786;SDS011;63134;52.020;4.714;2022-10-16T06:23:28;6.45;;;2.40;;
22786;SDS011;63134;52.020;4.714;2022-10-16T06:26:14;8.43;;;2.20;;
22786;SDS011;63134;52.020;4.714;2022-10-16T06:29:01;4.63;;;2.00;;
22786;SDS011;63134;52.020;4.714;2022-10-16T06:31:47;5.50;;;2.15;;
22786;SDS011;63134;52.020;4.714;2022-10-16T06:34:33;8.00;;;1.98;;
22786;SDS011;63134;52.020;4.714;2022-10-16T06:37:20;5.32;;;1.80;;
22786;SDS011;63134;52.020;4.714;2022-10-16T06:40:08;5.57;;;1.67;;
22786;SDS011;63134;52.020;4.714;2022-10-16T06:42:59;5.20;;;1.80;;
22786;SDS011;63134;52.020;4.714;2022-10-16T06:45:54;8.77;;;1.92;;
22786;SDS011;63134;52.020;4.714;2022-10-16T06:48:41;4.70;;;1.27;;
22786;SDS011;63134;52.020;4.714;2022-10-16T06:51:28;7.03;;;1.95;;
22786;SDS011;63134;52.020;4.714;2022-10-16T06:54:14;9.20;;;1.67;;
22786;SDS011;63134;52.020;4.714;2022-10-16T06:57:00;6.30;;;1.77;;
22786;SDS011;63134;52.020;4.714;2022-10-16T06:59:46;5.90;;;1.58;;
22786;SDS011;63134;52.020;4.714;2022-10-16T07:02:37;9.25;;;1.85;;
22786;SDS011;63134;52.020;4.714;2022-10-16T07:05:23;7.85;;;2.45;;
22786;SDS011;63134;52.020;4.714;2022-10-16T07:08:09;7.35;;;2.20;;
22786;SDS011;63134;52.020;4.714;2022-10-16T07:10:58;6.20;;;1.65;;
22786;SDS011;63134;52.020;4.714;2022-10-16T07:13:55;8.35;;;2.08;;
22786;SDS011;63134;52.020;4.714;2022-10-16T07:16:43;12.13;;;2.40;;
22786;SDS011;63134;52.020;4.714;2022-10-16T07:19:28;7.93;;;2.10;;
22786;SDS011;63134;52.020;4.714;2022-10-16T07:22:18;10.60;;;2.17;;
22786;SDS011;63134;52.020;4.714;2022-10-16T07:25:04;5.90;;;1.77;;
22786;SDS011;63134;52.020;4.714;2022-10-16T07:27:50;8.52;;;2.65;;
22786;SDS011;63134;52.020;4.714;2022-10-16T07:30:35;5.88;;;2.13;;
22786;SDS011;63134;52.020;4.714;2022-10-16T07:33:22;5.05;;;1.92;;
22786;SDS011;63134;52.020;4.714;2022-10-16T07:36:07;7.93;;;2.17;;
22786;SDS011;63134;52.020;4.714;2022-10-16T07:38:59;5.88;;;2.05;;
22786;SDS011;63134;52.020;4.714;2022-10-16T07:41:44;8.77;;;2.45;;
22786;SDS011;63134;52.020;4.714;2022-10-16T07:44:29;8.35;;;2.65;;
22786;SDS011;63134;52.020;4.714;2022-10-16T07:47:15;5.97;;;2.30;;
22786;SDS011;63134;52.020;4.714;2022-10-16T07:50:01;8.52;;;2.97;;
22786;SDS011;63134;52.020;4.714;2022-10-16T07:52:49;10.05;;;2.40;;
22786;SDS011;63134;52.020;4.714;2022-10-16T07:55:35;8.25;;;2.22;;
22786;SDS011;63134;52.020;4.714;2022-10-16T07:58:21;5.70;;;2.10;;
22786;SDS011;63134;52.020;4.714;2022-10-16T08:01:10;9.57;;;2.80;;
22786;SDS011;63134;52.020;4.714;2022-10-16T08:03:57;12.65;;;2.30;;
22786;SDS011;63134;52.020;4.714;2022-10-16T08:06:43;10.43;;;2.42;;
22786;SDS011;63134;52.020;4.714;2022-10-16T08:09:29;12.80;;;2.10;;
22786;SDS011;63134;52.020;4.714;2022-10-16T08:12:14;13.82;;;2.65;;
22786;SDS011;63134;52.020;4.714;2022-10-16T08:15:05;8.50;;;2.53;;
22786;SDS011;63134;52.020;4.714;2022-10-16T08:17:59;13.73;;;2.08;;
22786;SDS011;63134;52.020;4.714;2022-10-16T08:20:46;9.82;;;2.50;;
22786;SDS011;63134;52.020;4.714;2022-10-16T08:23:32;9.52;;;2.00;;
22786;SDS011;63134;52.020;4.714;2022-10-16T08:26:27;9.35;;;2.40;;
22786;SDS011;63134;52.020;4.714;2022-10-16T08:29:13;12.10;;;2.97;;
22786;SDS011;63134;52.020;4.714;2022-10-16T08:31:59;10.57;;;2.67;;
22786;SDS011;63134;52.020;4.714;2022-10-16T08:34:44;10.63;;;2.20;;
22786;SDS011;63134;52.020;4.714;2022-10-16T08:37:30;14.75;;;2.58;;
22786;SDS011;63134;52.020;4.714;2022-10-16T08:40:19;12.35;;;2.58;;
22786;SDS011;63134;52.020;4.714;2022-10-16T08:49:42;9.18;;;2.65;;
22786;SDS011;63134;52.020;4.714;2022-10-16T08:52:35;12.45;;;2.60;;
22786;SDS011;63134;52.020;4.714;2022-10-16T08:55:33;12.02;;;2.53;;
22786;SDS011;63134;52.020;4.714;2022-10-16T08:58:31;12.55;;;2.95;;
22786;SDS011;63134;52.020;4.714;2022-10-16T09:01:17;19.60;;;3.50;;
22786;SDS011;63134;52.020;4.714;2022-10-16T09:04:16;11.95;;;2.33;;
22786;SDS011;63134;52.020;4.714;2022-10-16T09:07:27;8.43;;;2.38;;
22786;SDS011;63134;52.020;4.714;2022-10-16T09:13:28;17.67;;;3.35;;
22786;SDS011;63134;52.020;4.714;2022-10-16T09:16:39;18.95;;;3.17;;
22786;SDS011;63134;52.020;4.714;2022-10-16T09:19:36;14.73;;;2.55;;
22786;SDS011;63134;52.020;4.714;2022-10-16T09:22:28;10.82;;;3.35;;
22786;SDS011;63134;52.020;4.714;2022-10-16T09:25:18;11.77;;;2.75;;
22786;SDS011;63134;52.020;4.714;2022-10-16T09:28:07;20.38;;;3.33;;
22786;SDS011;63134;52.020;4.714;2022-10-16T09:30:54;13.18;;;2.47;;
22786;SDS011;63134;52.020;4.714;2022-10-16T09:33:39;14.55;;;2.78;;
22786;SDS011;63134;52.020;4.714;2022-10-16T09:36:26;15.07;;;2.92;;
22786;SDS011;63134;52.020;4.714;2022-10-16T09:39:14;15.25;;;2.70;;
22786;SDS011;63134;52.020;4.714;2022-10-16T09:42:01;15.73;;;2.97;;
22786;SDS011;63134;52.020;4.714;2022-10-16T09:44:50;17.52;;;3.00;;
22786;SDS011;63134;52.020;4.714;2022-10-16T09:47:37;16.00;;;2.92;;
22786;SDS011;63134;52.020;4.714;2022-10-16T09:50:28;9.60;;;2.67;;
22786;SDS011;63134;52.020;4.714;2022-10-16T09:53:14;12.15;;;2.95;;
22786;SDS011;63134;52.020;4.714;2022-10-16T09:56:02;11.05;;;2.88;;
22786;SDS011;63134;52.020;4.714;2022-10-16T09:58:57;13.43;;;2.78;;
22786;SDS011;63134;52.020;4.714;2022-10-16T10:01:47;15.75;;;3.28;;
22786;SDS011;63134;52.020;4.714;2022-10-16T10:04:40;8.13;;;2.60;;
22786;SDS011;63134;52.020;4.714;2022-10-16T10:07:39;13.93;;;3.00;;
22786;SDS011;63134;52.020;4.714;2022-10-16T10:10:32;9.50;;;2.25;;
22786;SDS011;63134;52.020;4.714;2022-10-16T10:13:22;13.27;;;2.75;;
22786;SDS011;63134;52.020;4.714;2022-10-16T10:16:09;24.58;;;3.75;;
22786;SDS011;63134;52.020;4.714;2022-10-16T10:19:00;14.15;;;3.20;;
22786;SDS011;63134;52.020;4.714;2022-10-16T10:21:46;15.63;;;2.80;;
22786;SDS011;63134;52.020;4.714;2022-10-16T10:24:36;14.68;;;2.72;;
22786;SDS011;63134;52.020;4.714;2022-10-16T10:27:29;14.30;;;2.90;;
22786;SDS011;63134;52.020;4.714;2022-10-16T10:39:24;10.05;;;2.60;;
22786;SDS011;63134;52.020;4.714;2022-10-16T10:42:24;15.82;;;2.30;;
22786;SDS011;63134;52.020;4.714;2022-10-16T10:51:40;15.48;;;3.20;;
22786;SDS011;63134;52.020;4.714;2022-10-16T10:57:51;16.35;;;2.65;;
22786;SDS011;63134;52.020;4.714;2022-10-16T11:01:01;15.38;;;2.70;;
22786;SDS011;63134;52.020;4.714;2022-10-16T11:07:00;12.90;;;2.67;;
22786;SDS011;63134;52.020;4.714;2022-10-16T11:09:51;15.60;;;2.47;;
22786;SDS011;63134;52.020;4.714;2022-10-16T11:12:52;14.02;;;2.80;;
22786;SDS011;63134;52.020;4.714;2022-10-16T11:15:50;13.00;;;3.17;;
22786;SDS011;63134;52.020;4.714;2022-10-16T11:18:42;15.38;;;3.20;;
22786;SDS011;63134;52.020;4.714;2022-10-16T11:21:56;14.70;;;2.78;;
22786;SDS011;63134;52.020;4.714;2022-10-16T11:24:51;12.95;;;3.13;;
22786;SDS011;63134;52.020;4.714;2022-10-16T11:27:55;20.70;;;3.10;;
22786;SDS011;63134;52.020;4.714;2022-10-16T11:31:13;13.10;;;2.95;;
22786;SDS011;63134;52.020;4.714;2022-10-16T11:34:06;14.73;;;3.08;;
22786;SDS011;63134;52.020;4.714;2022-10-16T11:37:21;9.82;;;2.70;;
22786;SDS011;63134;52.020;4.714;2022-10-16T11:43:25;10.20;;;2.60;;
22786;SDS011;63134;52.020;4.714;2022-10-16T11:46:23;11.18;;;2.90;;
22786;SDS011;63134;52.020;4.714;2022-10-16T11:49:14;14.80;;;3.15;;
22786;SDS011;63134;52.020;4.714;2022-10-16T11:52:08;14.60;;;3.25;;
22786;SDS011;63134;52.020;4.714;2022-10-16T12:07:19;14.80;;;2.50;;
22786;SDS011;63134;52.020;4.714;2022-10-16T12:10:29;12.98;;;3.53;;
22786;SDS011;63134;52.020;4.714;2022-10-16T12:13:32;10.07;;;2.22;;
22786;SDS011;63134;52.020;4.714;2022-10-16T12:16:20;11.35;;;2.67;;
22786;SDS011;63134;52.020;4.714;2022-10-16T12:19:11;9.38;;;2.47;;
22786;SDS011;63134;52.020;4.714;2022-10-16T12:22:00;11.23;;;2.67;;
22786;SDS011;63134;52.020;4.714;2022-10-16T12:24:50;13.05;;;3.03;;
22786;SDS011;63134;52.020;4.714;2022-10-16T12:27:36;11.77;;;2.40;;
22786;SDS011;63134;52.020;4.714;2022-10-16T12:30:24;12.95;;;2.95;;
22786;SDS011;63134;52.020;4.714;2022-10-16T12:33:27;12.13;;;2.60;;
22786;SDS011;63134;52.020;4.714;2022-10-16T12:36:26;12.73;;;2.70;;
22786;SDS011;63134;52.020;4.714;2022-10-16T12:39:20;12.10;;;2.50;;
22786;SDS011;63134;52.020;4.714;2022-10-16T12:45:23;12.90;;;2.88;;
22786;SDS011;63134;52.020;4.714;2022-10-16T12:48:18;9.23;;;3.08;;
22786;SDS011;63134;52.020;4.714;2022-10-16T13:00:24;12.20;;;2.75;;
22786;SDS011;63134;52.020;4.714;2022-10-16T13:06:40;12.40;;;2.95;;
22786;SDS011;63134;52.020;4.714;2022-10-16T13:19:29;19.27;;;3.53;;
22786;SDS011;63134;52.020;4.714;2022-10-16T13:22:34;18.05;;;3.55;;
22786;SDS011;63134;52.020;4.714;2022-10-16T13:25:59;10.23;;;2.47;;
22786;SDS011;63134;52.020;4.714;2022-10-16T13:28:49;15.23;;;2.40;;
22786;SDS011;63134;52.020;4.714;2022-10-16T13:31:36;13.40;;;3.10;;
22786;SDS011;63134;52.020;4.714;2022-10-16T13:34:23;15.48;;;2.78;;
22786;SDS011;63134;52.020;4.714;2022-10-16T13:37:24;13.68;;;2.58;;
22786;SDS011;63134;52.020;4.714;2022-10-16T13:40:28;17.23;;;3.03;;
22786;SDS011;63134;52.020;4.714;2022-10-16T13:43:14;13.45;;;3.40;;
22786;SDS011;63134;52.020;4.714;2022-10-16T13:46:02;14.60;;;2.70;;
22786;SDS011;63134;52.020;4.714;2022-10-16T13:48:57;11.85;;;2.47;;
22786;SDS011;63134;52.020;4.714;2022-10-16T13:51:54;17.40;;;7.90;;
22786;SDS011;63134;52.020;4.714;2022-10-16T13:54:41;11.13;;;2.92;;
22786;SDS011;63134;52.020;4.714;2022-10-16T13:57:26;12.90;;;2.92;;
22786;SDS011;63134;52.020;4.714;2022-10-16T14:00:30;11.65;;;2.53;;
22786;SDS011;63134;52.020;4.714;2022-10-16T14:03:16;15.85;;;3.17;;
22786;SDS011;63134;52.020;4.714;2022-10-16T14:06:05;17.27;;;3.22;;
22786;SDS011;63134;52.020;4.714;2022-10-16T14:11:50;14.57;;;3.22;;
22786;SDS011;63134;52.020;4.714;2022-10-16T14:14:45;13.45;;;3.22;;
22786;SDS011;63134;52.020;4.714;2022-10-16T14:17:34;14.18;;;2.45;;
22786;SDS011;63134;52.020;4.714;2022-10-16T14:20:23;13.98;;;2.97;;
22786;SDS011;63134;52.020;4.714;2022-10-16T14:26:17;16.65;;;2.85;;
22786;SDS011;63134;52.020;4.714;2022-10-16T14:29:13;15.82;;;2.58;;
22786;SDS011;63134;52.020;4.714;2022-10-16T14:32:03;10.75;;;3.08;;
22786;SDS011;63134;52.020;4.714;2022-10-16T14:34:53;14.82;;;3.10;;
22786;SDS011;63134;52.020;4.714;2022-10-16T14:37:39;13.32;;;3.08;;
22786;SDS011;63134;52.020;4.714;2022-10-16T14:40:32;16.73;;;3.08;;
22786;SDS011;63134;52.020;4.714;2022-10-16T14:43:21;13.95;;;3.20;;
22786;SDS011;63134;52.020;4.714;2022-10-16T14:46:17;16.60;;;3.20;;
22786;SDS011;63134;52.020;4.714;2022-10-16T14:51:56;14.40;;;2.85;;
22786;SDS011;63134;52.020;4.714;2022-10-16T14:54:43;14.48;;;3.30;;
22786;SDS011;63134;52.020;4.714;2022-10-16T14:57:28;11.93;;;3.22;;
22786;SDS011;63134;52.020;4.714;2022-10-16T15:00:22;16.92;;;3.40;;
22786;SDS011;63134;52.020;4.714;2022-10-16T15:03:11;20.75;;;4.55;;
22786;SDS011;63134;52.020;4.714;2022-10-16T15:05:57;18.15;;;3.63;;
22786;SDS011;63134;52.020;4.714;2022-10-16T15:08:42;24.25;;;3.63;;
22786;SDS011;63134;52.020;4.714;2022-10-16T15:11:28;16.88;;;3.58;;
22786;SDS011;63134;52.020;4.714;2022-10-16T15:14:14;17.33;;;3.38;;
22786;SDS011;63134;52.020;4.714;2022-10-16T15:19:53;20.90;;;3.67;;
22786;SDS011;63134;52.020;4.714;2022-10-16T15:22:39;19.63;;;3.83;;
22786;SDS011;63134;52.020;4.714;2022-10-16T15:28:17;24.55;;;3.35;;
22786;SDS011;63134;52.020;4.714;2022-10-16T15:31:06;16.17;;;2.90;;
22786;SDS011;63134;52.020;4.714;2022-10-16T15:33:52;16.60;;;3.40;;
22786;SDS011;63134;52.020;4.714;2022-10-16T15:36:41;19.75;;;3.83;;
22786;SDS011;63134;52.020;4.714;2022-10-16T15:39:29;13.05;;;3.13;;
22786;SDS011;63134;52.020;4.714;2022-10-16T15:42:14;13.70;;;3.22;;
22786;SDS011;63134;52.020;4.714;2022-10-16T15:45:00;16.42;;;4.25;;
22786;SDS011;63134;52.020;4.714;2022-10-16T15:47:46;16.88;;;3.55;;
22786;SDS011;63134;52.020;4.714;2022-10-16T15:50:32;17.67;;;4.50;;
22786;SDS011;63134;52.020;4.714;2022-10-16T15:53:18;16.40;;;4.53;;
22786;SDS011;63134;52.020;4.714;2022-10-16T15:56:04;13.65;;;4.07;;
22786;SDS011;63134;52.020;4.714;2022-10-16T15:58:51;14.82;;;3.40;;
22786;SDS011;63134;52.020;4.714;2022-10-16T16:01:38;19.58;;;4.38;;
22786;SDS011;63134;52.020;4.714;2022-10-16T16:04:23;26.30;;;4.95;;
22786;SDS011;63134;52.020;4.714;2022-10-16T16:07:27;18.33;;;4.47;;
22786;SDS011;63134;52.020;4.714;2022-10-16T16:10:12;18.00;;;4.15;;
22786;SDS011;63134;52.020;4.714;2022-10-16T16:12:58;22.05;;;5.65;;
22786;SDS011;63134;52.020;4.714;2022-10-16T16:15:44;15.25;;;5.38;;
22786;SDS011;63134;52.020;4.714;2022-10-16T16:18:29;24.20;;;6.05;;
22786;SDS011;63134;52.020;4.714;2022-10-16T16:21:15;20.98;;;5.03;;
22786;SDS011;63134;52.020;4.714;2022-10-16T16:24:00;17.67;;;3.83;;
22786;SDS011;63134;52.020;4.714;2022-10-16T16:26:52;12.70;;;4.22;;
22786;SDS011;63134;52.020;4.714;2022-10-16T16:29:37;19.30;;;4.53;;
22786;SDS011;63134;52.020;4.714;2022-10-16T16:32:23;23.33;;;5.47;;
22786;SDS011;63134;52.020;4.714;2022-10-16T16:35:08;17.48;;;4.55;;
22786;SDS011;63134;52.020;4.714;2022-10-16T16:37:54;17.35;;;4.53;;
22786;SDS011;63134;52.020;4.714;2022-10-16T16:40:39;23.30;;;5.55;;
22786;SDS011;63134;52.020;4.714;2022-10-16T16:43:26;17.88;;;4.55;;
22786;SDS011;63134;52.020;4.714;2022-10-16T16:46:12;16.92;;;4.40;;
22786;SDS011;63134;52.020;4.714;2022-10-16T16:48:59;17.67;;;5.13;;
22786;SDS011;63134;52.020;4.714;2022-10-16T16:51:45;18.33;;;5.68;;
22786;SDS011;63134;52.020;4.714;2022-10-16T16:54:30;23.88;;;5.88;;
22786;SDS011;63134;52.020;4.714;2022-10-16T16:57:19;23.65;;;6.32;;
22786;SDS011;63134;52.020;4.714;2022-10-16T17:00:05;21.20;;;7.28;;
22786;SDS011;63134;52.020;4.714;2022-10-16T17:02:51;24.08;;;5.97;;
22786;SDS011;63134;52.020;4.714;2022-10-16T17:05:36;19.90;;;5.30;;
22786;SDS011;63134;52.020;4.714;2022-10-16T17:08:22;18.35;;;5.40;;
22786;SDS011;63134;52.020;4.714;2022-10-16T17:11:11;20.77;;;5.45;;
22786;SDS011;63134;52.020;4.714;2022-10-16T17:13:58;24.95;;;5.13;;
22786;SDS011;63134;52.020;4.714;2022-10-16T17:16:45;20.75;;;5.75;;
22786;SDS011;63134;52.020;4.714;2022-10-16T17:19:32;21.73;;;5.50;;
22786;SDS011;63134;52.020;4.714;2022-10-16T17:22:23;25.88;;;5.78;;
22786;SDS011;63134;52.020;4.714;2022-10-16T17:25:09;21.38;;;5.78;;
22786;SDS011;63134;52.020;4.714;2022-10-16T17:27:54;28.40;;;6.53;;
22786;SDS011;63134;52.020;4.714;2022-10-16T17:30:40;24.20;;;6.10;;
22786;SDS011;63134;52.020;4.714;2022-10-16T17:33:26;26.05;;;6.15;;
22786;SDS011;63134;52.020;4.714;2022-10-16T17:36:16;22.50;;;6.07;;
22786;SDS011;63134;52.020;4.714;2022-10-16T17:39:03;22.20;;;5.90;;
22786;SDS011;63134;52.020;4.714;2022-10-16T17:41:50;28.50;;;6.07;;
22786;SDS011;63134;52.020;4.714;2022-10-16T17:44:36;21.10;;;5.82;;
22786;SDS011;63134;52.020;4.714;2022-10-16T17:47:21;22.52;;;5.47;;
22786;SDS011;63134;52.020;4.714;2022-10-16T17:50:07;24.23;;;5.95;;
22786;SDS011;63134;52.020;4.714;2022-10-16T17:52:59;25.98;;;5.82;;
22786;SDS011;63134;52.020;4.714;2022-10-16T17:55:45;30.98;;;6.57;;
22786;SDS011;63134;52.020;4.714;2022-10-16T17:58:30;26.75;;;6.63;;
22786;SDS011;63134;52.020;4.714;2022-10-16T18:01:19;29.33;;;6.32;;
22786;SDS011;63134;52.020;4.714;2022-10-16T18:04:07;28.77;;;7.10;;
22786;SDS011;63134;52.020;4.714;2022-10-16T18:06:57;20.70;;;6.63;;
22786;SDS011;63134;52.020;4.714;2022-10-16T18:09:44;15.35;;;5.53;;
22786;SDS011;63134;52.020;4.714;2022-10-16T18:12:50;23.58;;;7.13;;
22786;SDS011;63134;52.020;4.714;2022-10-16T18:15:35;24.10;;;6.60;;
22786;SDS011;63134;52.020;4.714;2022-10-16T18:18:20;31.75;;;6.57;;
22786;SDS011;63134;52.020;4.714;2022-10-16T18:21:14;22.58;;;6.35;;
22786;SDS011;63134;52.020;4.714;2022-10-16T18:24:01;30.13;;;6.90;;
22786;SDS011;63134;52.020;4.714;2022-10-16T18:26:50;24.83;;;6.93;;
22786;SDS011;63134;52.020;4.714;2022-10-16T18:29:40;31.67;;;6.80;;
22786;SDS011;63134;52.020;4.714;2022-10-16T18:32:26;33.78;;;8.73;;
22786;SDS011;63134;52.020;4.714;2022-10-16T18:35:11;27.50;;;8.65;;
22786;SDS011;63134;52.020;4.714;2022-10-16T18:37:57;30.77;;;9.30;;